sensor_id;sensor_type;location;lat;lon;timestamp;pressure;altitude;pressure_sealevel;temperature
12234;BMP180;6179;51.748;8.728;2022-12-28T00:01:21;87319.00;;;222.90
12234;BMP180;6179;51.748;8.728;2022-12-28T00:07:22;87508.00;;;222.90
12234;BMP180;6179;51.748;8.728;2022-12-28T00:13:23;87545.00;;;222.90
12234;BMP180;6179;51.748;8.728;2022-12-28T00:19:23;87604.00;;;222.90
12234;BMP180;6179;51.748;8.728;2022-12-28T00:25:24;87500.00;;;222.90
12234;BMP180;6179;51.748;8.728;2022-12-28T00:31:25;87954.00;;;222.90
12234;BMP180;6179;51.748;8.728;2022-12-28T00:37:26;88016.00;;;222.90
12234;BMP180;6179;51.748;8.728;2022-12-28T00:43:27;88414.00;;;222.90
12234;BMP180;6179;51.748;8.728;2022-12-28T00:49:28;87596.00;;;222.90
12234;BMP180;6179;51.748;8.728;2022-12-28T00:55:29;87914.00;;;222.90
12234;BMP180;6179;51.748;8.728;2022-12-28T01:01:29;88034.00;;;222.90
12234;BMP180;6179;51.748;8.728;2022-12-28T01:07:31;87450.00;;;222.90
12234;BMP180;6179;51.748;8.728;2022-12-28T01:13:31;87348.00;;;222.90
12234;BMP180;6179;51.748;8.728;2022-12-28T01:19:32;88243.00;;;222.90
12234;BMP180;6179;51.748;8.728;2022-12-28T01:25:33;88188.00;;;222.90
12234;BMP180;6179;51.748;8.728;2022-12-28T01:31:34;88780.00;;;222.90
12234;BMP180;6179;51.748;8.728;2022-12-28T01:37:35;87472.00;;;222.90
12234;BMP180;6179;51.748;8.728;2022-12-28T01:43:46;87490.00;;;222.90
12234;BMP180;6179;51.748;8.728;2022-12-28T01:49:53;87552.00;;;222.90
12234;BMP180;6179;51.748;8.728;2022-12-28T01:55:55;87590.00;;;222.90
12234;BMP180;6179;51.748;8.728;2022-12-28T02:01:55;87337.00;;;222.90
12234;BMP180;6179;51.748;8.728;2022-12-28T02:08:05;87340.00;;;222.90
12234;BMP180;6179;51.748;8.728;2022-12-28T02:14:08;85988.00;;;222.90
12234;BMP180;6179;51.748;8.728;2022-12-28T02:20:10;86383.00;;;222.90
12234;BMP180;6179;51.748;8.728;2022-12-28T02:39:18;87137.00;;;222.90
12234;BMP180;6179;51.748;8.728;2022-12-28T02:45:41;86774.00;;;222.90
12234;BMP180;6179;51.748;8.728;2022-12-28T02:52:15;86154.00;;;222.90
12234;BMP180;6179;51.748;8.728;2022-12-28T02:58:50;86274.00;;;222.90
12234;BMP180;6179;51.748;8.728;2022-12-28T03:05:13;86335.00;;;222.90
12234;BMP180;6179;51.748;8.728;2022-12-28T03:12:07;86214.00;;;222.90
12234;BMP180;6179;51.748;8.728;2022-12-28T03:18:15;86285.00;;;222.90
12234;BMP180;6179;51.748;8.728;2022-12-28T03:24:37;86831.00;;;222.90
12234;BMP180;6179;51.748;8.728;2022-12-28T03:31:03;86748.00;;;222.90
12234;BMP180;6179;51.748;8.728;2022-12-28T03:43:34;85856.00;;;222.90
12234;BMP180;6179;51.748;8.728;2022-12-28T03:49:42;86279.00;;;222.90
12234;BMP180;6179;51.748;8.728;2022-12-28T03:55:43;86077.00;;;222.90
12234;BMP180;6179;51.748;8.728;2022-12-28T04:01:44;85980.00;;;222.90
12234;BMP180;6179;51.748;8.728;2022-12-28T04:07:45;85855.00;;;222.90
12234;BMP180;6179;51.748;8.728;2022-12-28T04:13:45;85263.00;;;222.90
12234;BMP180;6179;51.748;8.728;2022-12-28T04:19:46;85392.00;;;222.90
12234;BMP180;6179;51.748;8.728;2022-12-28T04:26:03;85165.00;;;222.90
12234;BMP180;6179;51.748;8.728;2022-12-28T04:32:04;85015.00;;;222.90
12234;BMP180;6179;51.748;8.728;2022-12-28T04:38:05;84896.00;;;222.90
12234;BMP180;6179;51.748;8.728;2022-12-28T04:44:06;85012.00;;;222.90
12234;BMP180;6179;51.748;8.728;2022-12-28T04:50:07;85213.00;;;222.90
12234;BMP180;6179;51.748;8.728;2022-12-28T04:56:10;85172.00;;;222.90
12234;BMP180;6179;51.748;8.728;2022-12-28T05:02:11;85200.00;;;222.90
12234;BMP180;6179;51.748;8.728;2022-12-28T05:08:12;86069.00;;;222.90
12234;BMP180;6179;51.748;8.728;2022-12-28T05:14:13;85800.00;;;222.90
12234;BMP180;6179;51.748;8.728;2022-12-28T05:20:14;85419.00;;;222.90
12234;BMP180;6179;51.748;8.728;2022-12-28T05:26:22;85268.00;;;222.90
12234;BMP180;6179;51.748;8.728;2022-12-28T05:32:23;85527.00;;;222.90
12234;BMP180;6179;51.748;8.728;2022-12-28T05:38:24;85234.00;;;222.90
12234;BMP180;6179;51.748;8.728;2022-12-28T05:44:29;84766.00;;;222.90
12234;BMP180;6179;51.748;8.728;2022-12-28T05:50:30;84886.00;;;222.90
12234;BMP180;6179;51.748;8.728;2022-12-28T05:56:31;84859.00;;;222.90
12234;BMP180;6179;51.748;8.728;2022-12-28T06:02:32;84905.00;;;222.90
12234;BMP180;6179;51.748;8.728;2022-12-28T06:08:34;84566.00;;;222.90
12234;BMP180;6179;51.748;8.728;2022-12-28T06:14:35;84668.00;;;222.90
12234;BMP180;6179;51.748;8.728;2022-12-28T06:20:35;85240.00;;;222.90
12234;BMP180;6179;51.748;8.728;2022-12-28T06:26:38;84760.00;;;222.90
12234;BMP180;6179;51.748;8.728;2022-12-28T06:32:40;84689.00;;;222.90
12234;BMP180;6179;51.748;8.728;2022-12-28T06:38:41;84532.00;;;222.90
12234;BMP180;6179;51.748;8.728;2022-12-28T06:44:42;84249.00;;;222.90
12234;BMP180;6179;51.748;8.728;2022-12-28T06:50:43;84195.00;;;222.90
12234;BMP180;6179;51.748;8.728;2022-12-28T06:56:43;84069.00;;;222.90
12234;BMP180;6179;51.748;8.728;2022-12-28T07:02:44;83829.00;;;222.90
12234;BMP180;6179;51.748;8.728;2022-12-28T07:08:46;83664.00;;;222.90
12234;BMP180;6179;51.748;8.728;2022-12-28T07:14:47;83825.00;;;222.90
12234;BMP180;6179;51.748;8.728;2022-12-28T07:20:47;83816.00;;;222.90
12234;BMP180;6179;51.748;8.728;2022-12-28T07:26:48;84853.00;;;222.90
12234;BMP180;6179;51.748;8.728;2022-12-28T07:32:49;84582.00;;;222.90
12234;BMP180;6179;51.748;8.728;2022-12-28T07:38:50;84763.00;;;222.90
12234;BMP180;6179;51.748;8.728;2022-12-28T07:44:51;84406.00;;;222.90
12234;BMP180;6179;51.748;8.728;2022-12-28T07:50:52;83615.00;;;222.90
12234;BMP180;6179;51.748;8.728;2022-12-28T07:56:53;83588.00;;;222.90
12234;BMP180;6179;51.748;8.728;2022-12-28T08:02:55;83804.00;;;222.90
12234;BMP180;6179;51.748;8.728;2022-12-28T08:09:00;83689.00;;;222.90
12234;BMP180;6179;51.748;8.728;2022-12-28T08:15:01;83639.00;;;222.90
12234;BMP180;6179;51.748;8.728;2022-12-28T08:21:10;83762.00;;;222.90
12234;BMP180;6179;51.748;8.728;2022-12-28T08:27:11;83598.00;;;222.90
12234;BMP180;6179;51.748;8.728;2022-12-28T08:33:11;83499.00;;;222.90
12234;BMP180;6179;51.748;8.728;2022-12-28T08:39:12;83605.00;;;222.90
12234;BMP180;6179;51.748;8.728;2022-12-28T08:45:14;83687.00;;;222.90
12234;BMP180;6179;51.748;8.728;2022-12-28T08:51:19;83470.00;;;222.90
12234;BMP180;6179;51.748;8.728;2022-12-28T08:57:20;83447.00;;;222.90
12234;BMP180;6179;51.748;8.728;2022-12-28T09:03:20;83274.00;;;222.90
12234;BMP180;6179;51.748;8.728;2022-12-28T09:09:21;83435.00;;;222.90
12234;BMP180;6179;51.748;8.728;2022-12-28T09:15:22;83349.00;;;222.90
12234;BMP180;6179;51.748;8.728;2022-12-28T09:21:27;83754.00;;;222.90
12234;BMP180;6179;51.748;8.728;2022-12-28T09:27:28;83688.00;;;222.90
12234;BMP180;6179;51.748;8.728;2022-12-28T09:33:29;83384.00;;;222.90
12234;BMP180;6179;51.748;8.728;2022-12-28T09:39:55;83715.00;;;222.90
12234;BMP180;6179;51.748;8.728;2022-12-28T09:45:56;83453.00;;;222.90
12234;BMP180;6179;51.748;8.728;2022-12-28T09:52:15;83547.00;;;222.90
12234;BMP180;6179;51.748;8.728;2022-12-28T09:58:22;83652.00;;;222.90
12234;BMP180;6179;51.748;8.728;2022-12-28T10:04:23;83577.00;;;222.90
12234;BMP180;6179;51.748;8.728;2022-12-28T10:10:26;83720.00;;;222.90
12234;BMP180;6179;51.748;8.728;2022-12-28T10:16:30;83711.00;;;222.90
12234;BMP180;6179;51.748;8.728;2022-12-28T10:22:38;84014.00;;;222.90
12234;BMP180;6179;51.748;8.728;2022-12-28T10:28:51;83854.00;;;222.90
12234;BMP180;6179;51.748;8.728;2022-12-28T10:35:00;84011.00;;;222.90
12234;BMP180;6179;51.748;8.728;2022-12-28T10:41:04;83946.00;;;222.90
12234;BMP180;6179;51.748;8.728;2022-12-28T10:47:23;83947.00;;;222.90
12234;BMP180;6179;51.748;8.728;2022-12-28T10:53:40;83454.00;;;222.90
12234;BMP180;6179;51.748;8.728;2022-12-28T10:59:42;83491.00;;;222.90
12234;BMP180;6179;51.748;8.728;2022-12-28T11:05:43;83277.00;;;222.90
12234;BMP180;6179;51.748;8.728;2022-12-28T11:11:46;83238.00;;;222.90
12234;BMP180;6179;51.748;8.728;2022-12-28T11:18:00;83240.00;;;222.90
12234;BMP180;6179;51.748;8.728;2022-12-28T11:24:13;83303.00;;;222.90
12234;BMP180;6179;51.748;8.728;2022-12-28T11:30:17;83663.00;;;222.90
12234;BMP180;6179;51.748;8.728;2022-12-28T11:36:22;83554.00;;;222.90
12234;BMP180;6179;51.748;8.728;2022-12-28T12:00:58;83162.00;;;222.90
12234;BMP180;6179;51.748;8.728;2022-12-28T12:19:31;82934.00;;;222.90
12234;BMP180;6179;51.748;8.728;2022-12-28T12:25:43;83123.00;;;222.90
12234;BMP180;6179;51.748;8.728;2022-12-28T12:32:06;83154.00;;;222.90
12234;BMP180;6179;51.748;8.728;2022-12-28T12:45:32;83451.00;;;222.90
12234;BMP180;6179;51.748;8.728;2022-12-28T13:04:34;83364.00;;;222.90
12234;BMP180;6179;51.748;8.728;2022-12-28T13:10:40;83078.00;;;222.90
12234;BMP180;6179;51.748;8.728;2022-12-28T13:16:47;83250.00;;;222.90
12234;BMP180;6179;51.748;8.728;2022-12-28T13:22:50;83046.00;;;222.90
12234;BMP180;6179;51.748;8.728;2022-12-28T13:29:02;82572.00;;;222.90
12234;BMP180;6179;51.748;8.728;2022-12-28T13:35:21;82603.00;;;222.90
12234;BMP180;6179;51.748;8.728;2022-12-28T13:41:24;82782.00;;;222.90
12234;BMP180;6179;51.748;8.728;2022-12-28T13:47:39;82954.00;;;222.90
12234;BMP180;6179;51.748;8.728;2022-12-28T13:53:46;82919.00;;;222.90
12234;BMP180;6179;51.748;8.728;2022-12-28T13:59:50;83010.00;;;222.90
12234;BMP180;6179;51.748;8.728;2022-12-28T14:05:56;83503.00;;;222.90
12234;BMP180;6179;51.748;8.728;2022-12-28T14:12:02;82963.00;;;222.90
12234;BMP180;6179;51.748;8.728;2022-12-28T14:18:04;82608.00;;;222.90
12234;BMP180;6179;51.748;8.728;2022-12-28T14:24:09;82276.00;;;222.90
12234;BMP180;6179;51.748;8.728;2022-12-28T14:30:31;82297.00;;;222.90
12234;BMP180;6179;51.748;8.728;2022-12-28T14:36:47;82263.00;;;222.90
12234;BMP180;6179;51.748;8.728;2022-12-28T14:42:51;82071.00;;;222.90
12234;BMP180;6179;51.748;8.728;2022-12-28T14:48:53;82078.00;;;222.90
12234;BMP180;6179;51.748;8.728;2022-12-28T14:54:54;82099.00;;;222.90
12234;BMP180;6179;51.748;8.728;2022-12-28T15:01:01;82138.00;;;222.90
12234;BMP180;6179;51.748;8.728;2022-12-28T15:07:05;82021.00;;;222.90
12234;BMP180;6179;51.748;8.728;2022-12-28T15:13:06;82068.00;;;222.90
12234;BMP180;6179;51.748;8.728;2022-12-28T15:19:07;82077.00;;;222.90
12234;BMP180;6179;51.748;8.728;2022-12-28T15:25:08;82166.00;;;222.90
12234;BMP180;6179;51.748;8.728;2022-12-28T15:31:14;82174.00;;;222.90
12234;BMP180;6179;51.748;8.728;2022-12-28T15:37:15;81822.00;;;222.90
12234;BMP180;6179;51.748;8.728;2022-12-28T15:43:16;82142.00;;;222.90
12234;BMP180;6179;51.748;8.728;2022-12-28T15:49:17;82075.00;;;222.90
12234;BMP180;6179;51.748;8.728;2022-12-28T15:55:18;82227.00;;;222.90
12234;BMP180;6179;51.748;8.728;2022-12-28T16:01:20;82331.00;;;222.90
12234;BMP180;6179;51.748;8.728;2022-12-28T16:07:21;82384.00;;;222.90
12234;BMP180;6179;51.748;8.728;2022-12-28T16:13:22;82403.00;;;222.90
12234;BMP180;6179;51.748;8.728;2022-12-28T16:19:22;82592.00;;;222.90
12234;BMP180;6179;51.748;8.728;2022-12-28T16:25:23;82041.00;;;222.90
12234;BMP180;6179;51.748;8.728;2022-12-28T16:31:32;81934.00;;;222.90
12234;BMP180;6179;51.748;8.728;2022-12-28T16:37:33;81900.00;;;222.90
12234;BMP180;6179;51.748;8.728;2022-12-28T16:43:34;81995.00;;;222.90
12234;BMP180;6179;51.748;8.728;2022-12-28T16:49:38;82078.00;;;222.90
12234;BMP180;6179;51.748;8.728;2022-12-28T16:55:41;81950.00;;;222.90
12234;BMP180;6179;51.748;8.728;2022-12-28T17:01:43;82245.00;;;222.90
12234;BMP180;6179;51.748;8.728;2022-12-28T17:07:44;82136.00;;;222.90
12234;BMP180;6179;51.748;8.728;2022-12-28T17:13:44;82035.00;;;222.90
12234;BMP180;6179;51.748;8.728;2022-12-28T17:19:45;82054.00;;;222.90
12234;BMP180;6179;51.748;8.728;2022-12-28T17:25:53;82086.00;;;222.90
12234;BMP180;6179;51.748;8.728;2022-12-28T17:31:54;82177.00;;;222.90
12234;BMP180;6179;51.748;8.728;2022-12-28T17:37:54;82273.00;;;222.90
12234;BMP180;6179;51.748;8.728;2022-12-28T17:43:58;82123.00;;;222.90
12234;BMP180;6179;51.748;8.728;2022-12-28T17:49:59;82308.00;;;222.90
12234;BMP180;6179;51.748;8.728;2022-12-28T17:56:07;81851.00;;;222.90
12234;BMP180;6179;51.748;8.728;2022-12-28T18:02:11;81371.00;;;222.90
12234;BMP180;6179;51.748;8.728;2022-12-28T18:08:12;81684.00;;;222.90
12234;BMP180;6179;51.748;8.728;2022-12-28T18:14:13;81469.00;;;222.90
12234;BMP180;6179;51.748;8.728;2022-12-28T18:20:14;81926.00;;;222.90
12234;BMP180;6179;51.748;8.728;2022-12-28T18:26:22;81826.00;;;222.90
12234;BMP180;6179;51.748;8.728;2022-12-28T18:32:23;82303.00;;;222.90
12234;BMP180;6179;51.748;8.728;2022-12-28T18:38:24;82101.00;;;222.90
12234;BMP180;6179;51.748;8.728;2022-12-28T18:44:24;82006.00;;;222.90
12234;BMP180;6179;51.748;8.728;2022-12-28T18:50:25;82074.00;;;222.90
12234;BMP180;6179;51.748;8.728;2022-12-28T18:56:26;82000.00;;;222.90
12234;BMP180;6179;51.748;8.728;2022-12-28T19:02:27;82264.00;;;222.90
12234;BMP180;6179;51.748;8.728;2022-12-28T19:08:30;82248.00;;;222.90
12234;BMP180;6179;51.748;8.728;2022-12-28T19:14:30;82061.00;;;222.90
12234;BMP180;6179;51.748;8.728;2022-12-28T19:20:32;82140.00;;;222.90
12234;BMP180;6179;51.748;8.728;2022-12-28T19:26:34;82259.00;;;222.90
12234;BMP180;6179;51.748;8.728;2022-12-28T19:32:35;81692.00;;;222.90
12234;BMP180;6179;51.748;8.728;2022-12-28T19:38:36;82031.00;;;222.90
12234;BMP180;6179;51.748;8.728;2022-12-28T19:44:36;81865.00;;;222.90
12234;BMP180;6179;51.748;8.728;2022-12-28T19:50:38;81494.00;;;222.90
12234;BMP180;6179;51.748;8.728;2022-12-28T19:56:39;81929.00;;;222.90
12234;BMP180;6179;51.748;8.728;2022-12-28T20:02:39;81701.00;;;222.90
12234;BMP180;6179;51.748;8.728;2022-12-28T20:08:44;81776.00;;;222.90
12234;BMP180;6179;51.748;8.728;2022-12-28T20:14:46;81613.00;;;222.90
12234;BMP180;6179;51.748;8.728;2022-12-28T20:20:47;81707.00;;;222.90
12234;BMP180;6179;51.748;8.728;2022-12-28T20:26:48;81312.00;;;222.90
12234;BMP180;6179;51.748;8.728;2022-12-28T20:32:49;81051.00;;;222.90
12234;BMP180;6179;51.748;8.728;2022-12-28T20:38:52;81051.00;;;222.90
12234;BMP180;6179;51.748;8.728;2022-12-28T20:44:56;80982.00;;;222.90
12234;BMP180;6179;51.748;8.728;2022-12-28T20:51:01;81078.00;;;222.90
12234;BMP180;6179;51.748;8.728;2022-12-28T20:57:02;80311.00;;;222.90
12234;BMP180;6179;51.748;8.728;2022-12-28T21:03:02;80510.00;;;222.90
12234;BMP180;6179;51.748;8.728;2022-12-28T21:09:03;80545.00;;;222.90
12234;BMP180;6179;51.748;8.728;2022-12-28T21:15:05;80855.00;;;222.90
12234;BMP180;6179;51.748;8.728;2022-12-28T21:21:19;80927.00;;;222.90
12234;BMP180;6179;51.748;8.728;2022-12-28T21:27:21;80367.00;;;222.90
12234;BMP180;6179;51.748;8.728;2022-12-28T21:33:22;80495.00;;;222.90
12234;BMP180;6179;51.748;8.728;2022-12-28T21:39:23;79910.00;;;222.90
12234;BMP180;6179;51.748;8.728;2022-12-28T21:45:24;79994.00;;;222.90
12234;BMP180;6179;51.748;8.728;2022-12-28T21:51:24;80120.00;;;222.90
12234;BMP180;6179;51.748;8.728;2022-12-28T21:57:31;80306.00;;;222.90
12234;BMP180;6179;51.748;8.728;2022-12-28T22:03:32;80393.00;;;222.90
12234;BMP180;6179;51.748;8.728;2022-12-28T22:09:52;79895.00;;;222.90
12234;BMP180;6179;51.748;8.728;2022-12-28T22:16:11;80143.00;;;222.90
12234;BMP180;6179;51.748;8.728;2022-12-28T22:22:12;80110.00;;;222.90
12234;BMP180;6179;51.748;8.728;2022-12-28T22:28:13;80090.00;;;222.90
12234;BMP180;6179;51.748;8.728;2022-12-28T22:34:14;80202.00;;;222.90
12234;BMP180;6179;51.748;8.728;2022-12-28T22:40:15;79850.00;;;222.90
12234;BMP180;6179;51.748;8.728;2022-12-28T22:46:17;80378.00;;;222.90
12234;BMP180;6179;51.748;8.728;2022-12-28T22:52:18;80397.00;;;222.90
12234;BMP180;6179;51.748;8.728;2022-12-28T22:58:19;80700.00;;;222.90
12234;BMP180;6179;51.748;8.728;2022-12-28T23:04:20;80190.00;;;222.90
12234;BMP180;6179;51.748;8.728;2022-12-28T23:10:21;80131.00;;;222.90
12234;BMP180;6179;51.748;8.728;2022-12-28T23:16:22;79980.00;;;222.90
12234;BMP180;6179;51.748;8.728;2022-12-28T23:22:27;80127.00;;;222.90
12234;BMP180;6179;51.748;8.728;2022-12-28T23:28:46;80201.00;;;222.90
12234;BMP180;6179;51.748;8.728;2022-12-28T23:34:48;80120.00;;;222.90
12234;BMP180;6179;51.748;8.728;2022-12-28T23:40:49;80120.00;;;222.90
12234;BMP180;6179;51.748;8.728;2022-12-28T23:47:10;80336.00;;;222.90
12234;BMP180;6179;51.748;8.728;2022-12-28T23:53:11;80117.00;;;222.90
12234;BMP180;6179;51.748;8.728;2022-12-28T23:59:12;79789.00;;;222.90
